Holstein, IA (51025)

7:09 PM CST on March 02, 2015 (GMT -0600)
Holstein Ag Services, LLC | Change Station
CLOSE
Current Station
Personal Weather Station
Location: Holstein, IA
Elevation: 1381 ft
Nearby Weather Stations

Elev 1381 ft 42.50 °N, 95.54 °W | Updated 58 seconds ago

Overcast
Overcast
28.6 °F
Feels Like 19 °F
N
12.0
Wind Variable Wind from ESE
Gusts 19.0 mph

Today
High -- | Low -- °F
--% Chance of Precip.
Yesterday
High -- | Low -- °F
Precip. -- in
6:56 AM 6:12 PM
Waxing Gibbous, 94% visible
Pressure 30.11 in
Visibility 10.0 miles
Clouds Overcast 6000 ft
Windchill 19 °F
Dew Point 23 °F
Humidity 78%
Rainfall 0.00 in
Snow Depth Not available.
UV 0 out of 12
Pollen .90 out of 12
Air Quality Not available.
Flu Activity Not available.
METAR KCKP 030055Z AUTO 13011KT 10SM OVC060 M02/M05 A3011 RMK AO2 T10181055

More Conditions Fewer Conditions

Pressure 30.11 in
Visibility 10.0 miles
Clouds Overcast 6000 ft
Windchill 19 °F
Dew Point 23 °F
Humidity 78%
Rainfall 0.00 in
Snow Depth Not available.
UV 0 out of 12
Pollen .90 out of 12
Air Quality Not available.
Flu Activity Not available.
METAR KCKP 030055Z AUTO 13011KT 10SM OVC060 M02/M05 A3011 RMK AO2 T10181055

More Conditions Fewer Conditions

10-Day Weather Forecast

Almanac

Astronomy

Mar. 02, 2015 Rise Set
Actual Time
Civil Twilight
Nautical Twilight
Astronomical Twilight
Moon
Length of Visible Light
Length of Day
Tomorrow will be .
, % of the Moon is Illuminated

Today's Extremes

State Highs State Lows

Community

WunderPhotos

Upload Photos

1,802,016 photos uploaded!

WunderBlogs® & News

Nearby

Air Quality

  Air Quality AQ Index Pollutant
Not available.

Snow Depth

Station Depth Elevation

Earthquake Activity

City Distance Mag. Time & Date
Minimum magnitude displayed is 2.5.

Coastal Water Temperatures

Place Temperature

Nearby Weather Stations